Airfield :
LOGIN :

Register | Disclaimer

   EN    FR    IT 

 










Legend :    VFR   Marginal VFR   IFR   Intensive IFR   Very Intensive IFR
Visi :
Ceiling :
>= 8 km
>= 3000ft
5 to 8 km
1000 to 3000 ft
1500m to 5 km
500 to 1000 ft
800 to 1500m
200 to 500 ft
< 800m
< 200 ft
Symbols :   Thunderstorms  Fog  Heavy snow  Heavy precipitations  Wind > 20 kt
SIGMETs :     Misc.  Thunderstorms  Icing  Turbulence  Mountain Waves  Volcanic Ashes






- Airport Elevation : 220 ft
- IATA code : CWL


EGFF - Cardiff Rhoose

CURRENT METAR :
  • 250450Z AUTO 35003KT 9999 NCD 07/07 Q1035

EXPIRED METARs :
  • 250420Z AUTO 34003KT 9999 NCD 07/07 Q1035
  • 250350Z AUTO VRB02KT 9000 NCD 07/07 Q1035
  • 250320Z AUTO 01003KT 9000 NCD 07/07 Q1034
  • 250250Z AUTO 35003KT 9999 NCD 08/08 Q1034
  • 250220Z AUTO 03003KT 6000 NCD 08/08 Q1034

TAF TAF EGFF
Valid from the 25 at 00:00 until the 26 at 00:00 UTC


242253Z 2500/2524 29013KT 9999 FEW007
BECMG 2500/2502 31003KT
TEMPO 2500/2502 9000 BKN007
PROB30
TEMPO 2502/2507 0300 FG VV///
BECMG 2511/2514 27013KT
BECMG 2521/2524 30003KT
ATIS : +44 1446 729 319



MET'MAP, your aeronautical weather chart ! - Copyright ORBIFLY December 2007 - Disclaimer

ORBIFLY MET'MAP TEAM :

Programming & Development : Alexandra Zaïnal
Concept & original design : Baudouin d'Aumeries
Assistance for programming : Marc-Olivier Méhu
Technical & hardware support : Manuel Goepfert

Contact : metmap@orbifly.com




SOURCES & CREDITS :

   NOAA